sensor_id;sensor_type;location;lat;lon;timestamp;P1;durP1;ratioP1;P2;durP2;ratioP2
69246;SDS011;56358;56.328;43.992;2023-07-31T00:00:29;3.15;;;1.33;;
69246;SDS011;56358;56.328;43.992;2023-07-31T00:02:30;3.53;;;1.35;;
69246;SDS011;56358;56.328;43.992;2023-07-31T00:04:30;2.28;;;1.20;;
69246;SDS011;56358;56.328;43.992;2023-07-31T00:06:31;3.22;;;1.30;;
69246;SDS011;56358;56.328;43.992;2023-07-31T00:08:32;2.45;;;1.20;;
69246;SDS011;56358;56.328;43.992;2023-07-31T00:10:32;3.40;;;1.60;;
69246;SDS011;56358;56.328;43.992;2023-07-31T00:12:34;4.28;;;1.77;;
69246;SDS011;56358;56.328;43.992;2023-07-31T00:14:34;3.45;;;1.50;;
69246;SDS011;56358;56.328;43.992;2023-07-31T00:16:35;4.35;;;1.75;;
69246;SDS011;56358;56.328;43.992;2023-07-31T00:18:36;3.80;;;1.55;;
69246;SDS011;56358;56.328;43.992;2023-07-31T00:20:36;4.57;;;1.80;;
69246;SDS011;56358;56.328;43.992;2023-07-31T00:22:37;3.08;;;1.83;;
69246;SDS011;56358;56.328;43.992;2023-07-31T00:24:38;3.83;;;1.70;;
69246;SDS011;56358;56.328;43.992;2023-07-31T00:26:38;3.67;;;1.90;;
69246;SDS011;56358;56.328;43.992;2023-07-31T00:28:39;4.88;;;2.30;;
69246;SDS011;56358;56.328;43.992;2023-07-31T00:30:40;4.47;;;2.00;;
69246;SDS011;56358;56.328;43.992;2023-07-31T00:32:40;3.10;;;1.55;;
69246;SDS011;56358;56.328;43.992;2023-07-31T00:34:41;3.38;;;2.00;;
69246;SDS011;56358;56.328;43.992;2023-07-31T00:36:42;4.72;;;2.10;;
69246;SDS011;56358;56.328;43.992;2023-07-31T00:38:42;2.58;;;1.35;;
69246;SDS011;56358;56.328;43.992;2023-07-31T00:40:43;3.22;;;1.10;;
69246;SDS011;56358;56.328;43.992;2023-07-31T00:42:44;3.50;;;1.25;;
69246;SDS011;56358;56.328;43.992;2023-07-31T00:44:44;1.63;;;1.00;;
69246;SDS011;56358;56.328;43.992;2023-07-31T00:46:45;2.28;;;1.02;;
69246;SDS011;56358;56.328;43.992;2023-07-31T00:48:46;2.53;;;1.10;;
69246;SDS011;56358;56.328;43.992;2023-07-31T00:50:47;3.03;;;1.20;;
69246;SDS011;56358;56.328;43.992;2023-07-31T00:52:47;2.72;;;1.35;;
69246;SDS011;56358;56.328;43.992;2023-07-31T00:54:48;1.95;;;1.00;;
69246;SDS011;56358;56.328;43.992;2023-07-31T00:56:49;2.85;;;0.93;;
69246;SDS011;56358;56.328;43.992;2023-07-31T00:58:53;1.85;;;1.00;;
69246;SDS011;56358;56.328;43.992;2023-07-31T01:00:53;1.58;;;0.85;;
69246;SDS011;56358;56.328;43.992;2023-07-31T01:02:54;2.10;;;1.00;;
69246;SDS011;56358;56.328;43.992;2023-07-31T01:04:55;1.55;;;0.93;;
69246;SDS011;56358;56.328;43.992;2023-07-31T01:07:06;3.15;;;0.95;;
69246;SDS011;56358;56.328;43.992;2023-07-31T01:09:11;1.90;;;1.00;;
69246;SDS011;56358;56.328;43.992;2023-07-31T01:11:27;2.65;;;1.13;;
69246;SDS011;56358;56.328;43.992;2023-07-31T01:13:30;1.83;;;1.00;;
69246;SDS011;56358;56.328;43.992;2023-07-31T01:15:31;1.50;;;0.80;;
69246;SDS011;56358;56.328;43.992;2023-07-31T01:17:32;1.05;;;0.73;;
69246;SDS011;56358;56.328;43.992;2023-07-31T01:19:33;1.25;;;0.70;;
69246;SDS011;56358;56.328;43.992;2023-07-31T01:27:57;2.05;;;0.80;;
69246;SDS011;56358;56.328;43.992;2023-07-31T01:30:08;1.15;;;0.70;;
69246;SDS011;56358;56.328;43.992;2023-07-31T01:32:21;3.42;;;0.80;;
69246;SDS011;56358;56.328;43.992;2023-07-31T01:34:23;1.40;;;0.70;;
69246;SDS011;56358;56.328;43.992;2023-07-31T01:36:24;1.17;;;0.93;;
69246;SDS011;56358;56.328;43.992;2023-07-31T01:38:25;1.80;;;0.93;;
69246;SDS011;56358;56.328;43.992;2023-07-31T01:40:26;1.85;;;0.80;;
69246;SDS011;56358;56.328;43.992;2023-07-31T01:42:26;1.50;;;0.80;;
69246;SDS011;56358;56.328;43.992;2023-07-31T01:44:27;1.23;;;0.80;;
69246;SDS011;56358;56.328;43.992;2023-07-31T01:46:28;2.05;;;1.02;;
69246;SDS011;56358;56.328;43.992;2023-07-31T01:48:29;4.15;;;0.93;;
69246;SDS011;56358;56.328;43.992;2023-07-31T01:50:29;2.53;;;1.00;;
69246;SDS011;56358;56.328;43.992;2023-07-31T01:52:30;2.30;;;1.20;;
69246;SDS011;56358;56.328;43.992;2023-07-31T01:54:30;5.00;;;1.30;;
69246;SDS011;56358;56.328;43.992;2023-07-31T01:56:32;3.90;;;1.38;;
69246;SDS011;56358;56.328;43.992;2023-07-31T01:58:32;3.38;;;1.55;;
69246;SDS011;56358;56.328;43.992;2023-07-31T02:00:33;2.83;;;1.33;;
69246;SDS011;56358;56.328;43.992;2023-07-31T02:02:34;2.22;;;1.33;;
69246;SDS011;56358;56.328;43.992;2023-07-31T02:04:34;2.95;;;1.30;;
69246;SDS011;56358;56.328;43.992;2023-07-31T02:06:35;2.95;;;1.38;;
69246;SDS011;56358;56.328;43.992;2023-07-31T02:08:36;1.73;;;1.00;;
69246;SDS011;56358;56.328;43.992;2023-07-31T02:10:36;1.48;;;0.90;;
69246;SDS011;56358;56.328;43.992;2023-07-31T02:12:37;3.75;;;1.10;;
69246;SDS011;56358;56.328;43.992;2023-07-31T02:14:39;1.80;;;0.95;;
69246;SDS011;56358;56.328;43.992;2023-07-31T02:16:39;2.83;;;1.00;;
69246;SDS011;56358;56.328;43.992;2023-07-31T02:20:43;3.05;;;1.00;;
69246;SDS011;56358;56.328;43.992;2023-07-31T02:24:46;2.90;;;0.90;;
69246;SDS011;56358;56.328;43.992;2023-07-31T02:26:47;2.22;;;1.13;;
69246;SDS011;56358;56.328;43.992;2023-07-31T02:28:48;2.75;;;1.00;;
69246;SDS011;56358;56.328;43.992;2023-07-31T02:30:49;1.85;;;1.00;;
69246;SDS011;56358;56.328;43.992;2023-07-31T02:32:50;3.55;;;0.93;;
69246;SDS011;56358;56.328;43.992;2023-07-31T02:34:51;1.40;;;0.80;;
69246;SDS011;56358;56.328;43.992;2023-07-31T02:36:52;2.33;;;1.00;;
69246;SDS011;56358;56.328;43.992;2023-07-31T02:38:52;1.88;;;0.80;;
69246;SDS011;56358;56.328;43.992;2023-07-31T02:40:53;2.50;;;0.88;;
69246;SDS011;56358;56.328;43.992;2023-07-31T02:42:53;1.05;;;0.73;;
69246;SDS011;56358;56.328;43.992;2023-07-31T02:44:54;1.60;;;1.00;;
69246;SDS011;56358;56.328;43.992;2023-07-31T02:46:56;1.98;;;0.80;;
69246;SDS011;56358;56.328;43.992;2023-07-31T02:48:56;0.95;;;0.60;;
69246;SDS011;56358;56.328;43.992;2023-07-31T02:50:57;3.90;;;0.88;;
69246;SDS011;56358;56.328;43.992;2023-07-31T02:52:58;1.52;;;0.82;;
69246;SDS011;56358;56.328;43.992;2023-07-31T02:54:58;2.85;;;0.93;;
69246;SDS011;56358;56.328;43.992;2023-07-31T02:56:59;2.60;;;1.00;;
69246;SDS011;56358;56.328;43.992;2023-07-31T02:59:00;1.25;;;0.90;;
69246;SDS011;56358;56.328;43.992;2023-07-31T03:01:00;1.00;;;0.80;;
69246;SDS011;56358;56.328;43.992;2023-07-31T03:03:01;1.42;;;0.80;;
69246;SDS011;56358;56.328;43.992;2023-07-31T03:05:02;1.55;;;0.80;;
69246;SDS011;56358;56.328;43.992;2023-07-31T03:07:05;1.15;;;0.90;;
69246;SDS011;56358;56.328;43.992;2023-07-31T03:09:06;2.20;;;0.82;;
69246;SDS011;56358;56.328;43.992;2023-07-31T03:11:07;2.38;;;0.70;;
69246;SDS011;56358;56.328;43.992;2023-07-31T03:13:08;2.00;;;0.85;;
69246;SDS011;56358;56.328;43.992;2023-07-31T03:15:08;0.75;;;0.70;;
69246;SDS011;56358;56.328;43.992;2023-07-31T03:17:09;1.02;;;0.63;;
69246;SDS011;56358;56.328;43.992;2023-07-31T03:19:10;2.33;;;0.70;;
69246;SDS011;56358;56.328;43.992;2023-07-31T03:21:11;1.63;;;0.80;;
69246;SDS011;56358;56.328;43.992;2023-07-31T03:23:12;1.48;;;0.63;;
69246;SDS011;56358;56.328;43.992;2023-07-31T03:25:13;2.08;;;0.80;;
69246;SDS011;56358;56.328;43.992;2023-07-31T03:27:15;1.10;;;0.60;;
69246;SDS011;56358;56.328;43.992;2023-07-31T03:29:15;0.95;;;0.80;;
69246;SDS011;56358;56.328;43.992;2023-07-31T03:31:16;0.70;;;0.60;;
69246;SDS011;56358;56.328;43.992;2023-07-31T03:33:17;2.45;;;1.00;;
69246;SDS011;56358;56.328;43.992;2023-07-31T03:35:17;1.67;;;0.70;;
69246;SDS011;56358;56.328;43.992;2023-07-31T03:37:18;2.45;;;0.90;;
69246;SDS011;56358;56.328;43.992;2023-07-31T03:39:18;1.10;;;0.80;;
69246;SDS011;56358;56.328;43.992;2023-07-31T03:41:19;2.50;;;0.80;;
69246;SDS011;56358;56.328;43.992;2023-07-31T03:43:20;1.27;;;0.70;;
69246;SDS011;56358;56.328;43.992;2023-07-31T03:45:21;0.60;;;0.60;;
69246;SDS011;56358;56.328;43.992;2023-07-31T03:47:22;1.30;;;0.80;;
69246;SDS011;56358;56.328;43.992;2023-07-31T03:49:22;0.98;;;0.63;;
69246;SDS011;56358;56.328;43.992;2023-07-31T03:51:23;1.95;;;0.82;;
69246;SDS011;56358;56.328;43.992;2023-07-31T03:53:24;3.60;;;0.93;;
69246;SDS011;56358;56.328;43.992;2023-07-31T03:55:25;3.30;;;0.93;;
69246;SDS011;56358;56.328;43.992;2023-07-31T03:57:25;1.80;;;0.82;;
69246;SDS011;56358;56.328;43.992;2023-07-31T03:59:26;0.77;;;0.70;;
69246;SDS011;56358;56.328;43.992;2023-07-31T04:01:27;0.70;;;0.60;;
69246;SDS011;56358;56.328;43.992;2023-07-31T04:03:27;1.85;;;0.90;;
69246;SDS011;56358;56.328;43.992;2023-07-31T04:05:29;1.52;;;0.80;;
69246;SDS011;56358;56.328;43.992;2023-07-31T04:09:32;2.33;;;0.93;;
69246;SDS011;56358;56.328;43.992;2023-07-31T04:11:32;1.33;;;1.00;;
69246;SDS011;56358;56.328;43.992;2023-07-31T04:13:33;1.67;;;0.95;;
69246;SDS011;56358;56.328;43.992;2023-07-31T04:15:34;1.15;;;0.88;;
69246;SDS011;56358;56.328;43.992;2023-07-31T04:17:34;1.65;;;1.05;;
69246;SDS011;56358;56.328;43.992;2023-07-31T04:19:35;1.30;;;0.90;;
69246;SDS011;56358;56.328;43.992;2023-07-31T04:21:36;1.63;;;1.00;;
69246;SDS011;56358;56.328;43.992;2023-07-31T04:23:37;1.27;;;0.82;;
69246;SDS011;56358;56.328;43.992;2023-07-31T04:25:38;2.22;;;0.80;;
69246;SDS011;56358;56.328;43.992;2023-07-31T04:27:39;2.15;;;0.80;;
69246;SDS011;56358;56.328;43.992;2023-07-31T04:29:40;1.13;;;0.70;;
69246;SDS011;56358;56.328;43.992;2023-07-31T04:31:43;2.45;;;0.90;;
69246;SDS011;56358;56.328;43.992;2023-07-31T04:33:43;1.55;;;0.80;;
69246;SDS011;56358;56.328;43.992;2023-07-31T04:35:50;1.70;;;0.80;;
69246;SDS011;56358;56.328;43.992;2023-07-31T04:37:52;1.67;;;1.10;;
69246;SDS011;56358;56.328;43.992;2023-07-31T04:39:53;0.93;;;0.80;;
69246;SDS011;56358;56.328;43.992;2023-07-31T04:41:54;1.58;;;0.60;;
69246;SDS011;56358;56.328;43.992;2023-07-31T04:43:54;1.27;;;0.80;;
69246;SDS011;56358;56.328;43.992;2023-07-31T04:45:55;1.92;;;0.90;;
69246;SDS011;56358;56.328;43.992;2023-07-31T04:47:56;1.73;;;0.90;;
69246;SDS011;56358;56.328;43.992;2023-07-31T04:49:57;1.60;;;0.70;;
69246;SDS011;56358;56.328;43.992;2023-07-31T04:51:57;0.88;;;0.65;;
69246;SDS011;56358;56.328;43.992;2023-07-31T04:53:58;1.00;;;0.75;;
69246;SDS011;56358;56.328;43.992;2023-07-31T04:55:59;2.50;;;0.80;;
69246;SDS011;56358;56.328;43.992;2023-07-31T04:57:59;1.33;;;0.90;;
69246;SDS011;56358;56.328;43.992;2023-07-31T05:00:00;4.20;;;1.92;;
69246;SDS011;56358;56.328;43.992;2023-07-31T05:02:01;1.40;;;1.10;;
69246;SDS011;56358;56.328;43.992;2023-07-31T05:04:01;4.20;;;1.55;;
69246;SDS011;56358;56.328;43.992;2023-07-31T05:06:02;2.00;;;1.10;;
69246;SDS011;56358;56.328;43.992;2023-07-31T05:08:03;2.72;;;1.30;;
69246;SDS011;56358;56.328;43.992;2023-07-31T05:10:04;1.80;;;0.70;;
69246;SDS011;56358;56.328;43.992;2023-07-31T05:12:05;1.17;;;0.80;;
69246;SDS011;56358;56.328;43.992;2023-07-31T05:14:06;5.00;;;2.45;;
69246;SDS011;56358;56.328;43.992;2023-07-31T05:16:07;3.88;;;1.67;;
69246;SDS011;56358;56.328;43.992;2023-07-31T05:18:08;0.90;;;0.70;;
69246;SDS011;56358;56.328;43.992;2023-07-31T05:20:09;1.88;;;0.90;;
69246;SDS011;56358;56.328;43.992;2023-07-31T05:22:10;1.42;;;0.88;;
69246;SDS011;56358;56.328;43.992;2023-07-31T05:24:11;2.97;;;1.50;;
69246;SDS011;56358;56.328;43.992;2023-07-31T05:26:12;3.42;;;1.70;;
69246;SDS011;56358;56.328;43.992;2023-07-31T05:28:12;1.60;;;0.80;;
69246;SDS011;56358;56.328;43.992;2023-07-31T05:30:13;2.10;;;0.80;;
69246;SDS011;56358;56.328;43.992;2023-07-31T05:32:14;2.75;;;1.40;;
69246;SDS011;56358;56.328;43.992;2023-07-31T05:34:14;1.10;;;0.80;;
69246;SDS011;56358;56.328;43.992;2023-07-31T05:36:16;1.70;;;0.80;;
69246;SDS011;56358;56.328;43.992;2023-07-31T05:38:17;1.58;;;0.80;;
69246;SDS011;56358;56.328;43.992;2023-07-31T05:40:17;2.35;;;1.00;;
69246;SDS011;56358;56.328;43.992;2023-07-31T05:42:18;1.20;;;0.82;;
69246;SDS011;56358;56.328;43.992;2023-07-31T05:44:19;3.50;;;1.73;;
69246;SDS011;56358;56.328;43.992;2023-07-31T05:46:19;4.05;;;1.40;;
69246;SDS011;56358;56.328;43.992;2023-07-31T05:48:20;1.58;;;0.80;;
69246;SDS011;56358;56.328;43.992;2023-07-31T05:50:21;1.75;;;0.90;;
69246;SDS011;56358;56.328;43.992;2023-07-31T05:52:21;2.55;;;0.90;;
69246;SDS011;56358;56.328;43.992;2023-07-31T05:54:22;1.60;;;0.85;;
69246;SDS011;56358;56.328;43.992;2023-07-31T05:56:23;2.40;;;1.00;;
69246;SDS011;56358;56.328;43.992;2023-07-31T05:58:23;2.50;;;1.00;;
69246;SDS011;56358;56.328;43.992;2023-07-31T06:00:24;2.13;;;0.90;;
69246;SDS011;56358;56.328;43.992;2023-07-31T06:02:25;1.33;;;1.00;;
69246;SDS011;56358;56.328;43.992;2023-07-31T06:04:25;1.05;;;0.80;;
69246;SDS011;56358;56.328;43.992;2023-07-31T06:06:26;1.38;;;0.82;;
69246;SDS011;56358;56.328;43.992;2023-07-31T06:08:27;1.83;;;0.95;;
69246;SDS011;56358;56.328;43.992;2023-07-31T06:10:27;1.52;;;1.00;;
69246;SDS011;56358;56.328;43.992;2023-07-31T06:12:28;4.07;;;1.17;;
69246;SDS011;56358;56.328;43.992;2023-07-31T06:14:29;2.67;;;1.33;;
69246;SDS011;56358;56.328;43.992;2023-07-31T06:16:29;3.47;;;1.33;;
69246;SDS011;56358;56.328;43.992;2023-07-31T06:18:31;1.80;;;0.95;;
69246;SDS011;56358;56.328;43.992;2023-07-31T06:20:33;1.93;;;1.20;;
69246;SDS011;56358;56.328;43.992;2023-07-31T06:22:34;1.73;;;1.20;;
69246;SDS011;56358;56.328;43.992;2023-07-31T06:24:35;3.67;;;1.27;;
69246;SDS011;56358;56.328;43.992;2023-07-31T06:26:36;2.00;;;1.20;;
69246;SDS011;56358;56.328;43.992;2023-07-31T06:28:36;3.22;;;1.20;;
69246;SDS011;56358;56.328;43.992;2023-07-31T06:30:37;3.15;;;1.30;;
69246;SDS011;56358;56.328;43.992;2023-07-31T06:32:37;1.92;;;1.02;;
69246;SDS011;56358;56.328;43.992;2023-07-31T06:34:38;4.43;;;2.20;;
69246;SDS011;56358;56.328;43.992;2023-07-31T06:36:39;3.35;;;1.88;;
69246;SDS011;56358;56.328;43.992;2023-07-31T06:38:40;2.63;;;1.33;;
69246;SDS011;56358;56.328;43.992;2023-07-31T06:40:40;4.50;;;2.00;;
69246;SDS011;56358;56.328;43.992;2023-07-31T06:42:41;3.42;;;1.70;;
69246;SDS011;56358;56.328;43.992;2023-07-31T06:44:42;1.63;;;1.02;;
69246;SDS011;56358;56.328;43.992;2023-07-31T06:46:42;2.60;;;1.20;;
69246;SDS011;56358;56.328;43.992;2023-07-31T06:48:44;5.13;;;1.30;;
69246;SDS011;56358;56.328;43.992;2023-07-31T06:50:44;2.05;;;1.27;;
69246;SDS011;56358;56.328;43.992;2023-07-31T06:52:45;2.13;;;1.38;;
69246;SDS011;56358;56.328;43.992;2023-07-31T06:54:57;2.42;;;1.40;;
69246;SDS011;56358;56.328;43.992;2023-07-31T06:57:04;3.13;;;1.40;;
69246;SDS011;56358;56.328;43.992;2023-07-31T06:59:05;2.95;;;1.45;;
69246;SDS011;56358;56.328;43.992;2023-07-31T07:01:05;3.80;;;1.85;;
69246;SDS011;56358;56.328;43.992;2023-07-31T07:03:06;4.60;;;2.05;;
69246;SDS011;56358;56.328;43.992;2023-07-31T07:05:07;3.67;;;1.48;;
69246;SDS011;56358;56.328;43.992;2023-07-31T07:07:08;3.25;;;1.80;;
69246;SDS011;56358;56.328;43.992;2023-07-31T07:09:09;3.42;;;2.00;;
69246;SDS011;56358;56.328;43.992;2023-07-31T07:11:10;2.70;;;1.50;;
69246;SDS011;56358;56.328;43.992;2023-07-31T07:13:10;3.60;;;1.90;;
69246;SDS011;56358;56.328;43.992;2023-07-31T07:15:12;3.47;;;1.95;;
69246;SDS011;56358;56.328;43.992;2023-07-31T07:17:13;3.63;;;2.13;;
69246;SDS011;56358;56.328;43.992;2023-07-31T07:19:14;8.18;;;2.40;;
69246;SDS011;56358;56.328;43.992;2023-07-31T07:21:14;3.47;;;2.10;;
69246;SDS011;56358;56.328;43.992;2023-07-31T07:23:16;6.03;;;2.47;;
69246;SDS011;56358;56.328;43.992;2023-07-31T07:25:17;5.18;;;2.10;;
69246;SDS011;56358;56.328;43.992;2023-07-31T07:27:17;5.28;;;2.40;;
69246;SDS011;56358;56.328;43.992;2023-07-31T07:29:18;4.57;;;2.85;;
69246;SDS011;56358;56.328;43.992;2023-07-31T07:31:19;4.68;;;2.78;;
69246;SDS011;56358;56.328;43.992;2023-07-31T07:33:19;3.10;;;2.25;;
69246;SDS011;56358;56.328;43.992;2023-07-31T07:35:20;9.13;;;4.75;;
69246;SDS011;56358;56.328;43.992;2023-07-31T07:37:21;4.63;;;2.75;;
69246;SDS011;56358;56.328;43.992;2023-07-31T07:39:22;3.85;;;2.53;;
69246;SDS011;56358;56.328;43.992;2023-07-31T07:41:22;4.43;;;2.47;;
69246;SDS011;56358;56.328;43.992;2023-07-31T07:43:23;4.25;;;2.22;;
69246;SDS011;56358;56.328;43.992;2023-07-31T07:45:24;3.83;;;2.03;;
69246;SDS011;56358;56.328;43.992;2023-07-31T07:47:25;3.80;;;2.28;;
69246;SDS011;56358;56.328;43.992;2023-07-31T07:49:25;4.65;;;2.40;;
69246;SDS011;56358;56.328;43.992;2023-07-31T07:51:26;7.25;;;2.65;;
69246;SDS011;56358;56.328;43.992;2023-07-31T07:53:27;3.88;;;2.70;;
69246;SDS011;56358;56.328;43.992;2023-07-31T07:55:27;5.63;;;2.72;;
69246;SDS011;56358;56.328;43.992;2023-07-31T07:57:28;6.30;;;2.70;;
69246;SDS011;56358;56.328;43.992;2023-07-31T07:59:29;6.03;;;3.15;;
69246;SDS011;56358;56.328;43.992;2023-07-31T08:01:29;5.40;;;3.00;;
69246;SDS011;56358;56.328;43.992;2023-07-31T08:03:30;6.10;;;3.13;;
69246;SDS011;56358;56.328;43.992;2023-07-31T08:05:31;5.47;;;3.30;;
69246;SDS011;56358;56.328;43.992;2023-07-31T08:07:34;6.00;;;3.05;;
69246;SDS011;56358;56.328;43.992;2023-07-31T08:09:34;6.28;;;3.13;;
69246;SDS011;56358;56.328;43.992;2023-07-31T08:11:35;4.47;;;3.13;;
69246;SDS011;56358;56.328;43.992;2023-07-31T08:13:36;4.68;;;2.92;;
69246;SDS011;56358;56.328;43.992;2023-07-31T08:15:37;5.80;;;3.38;;
69246;SDS011;56358;56.328;43.992;2023-07-31T08:17:37;8.15;;;3.53;;
69246;SDS011;56358;56.328;43.992;2023-07-31T08:19:38;5.07;;;3.30;;
69246;SDS011;56358;56.328;43.992;2023-07-31T08:21:39;5.20;;;3.08;;
69246;SDS011;56358;56.328;43.992;2023-07-31T08:23:39;4.32;;;3.05;;
69246;SDS011;56358;56.328;43.992;2023-07-31T08:25:40;5.03;;;3.03;;
69246;SDS011;56358;56.328;43.992;2023-07-31T08:27:44;6.15;;;3.00;;
69246;SDS011;56358;56.328;43.992;2023-07-31T08:29:45;7.32;;;3.60;;
69246;SDS011;56358;56.328;43.992;2023-07-31T08:31:45;5.05;;;3.38;;
69246;SDS011;56358;56.328;43.992;2023-07-31T08:33:46;7.10;;;3.58;;
69246;SDS011;56358;56.328;43.992;2023-07-31T08:35:47;7.60;;;3.47;;
69246;SDS011;56358;56.328;43.992;2023-07-31T08:37:48;6.22;;;3.38;;
69246;SDS011;56358;56.328;43.992;2023-07-31T08:39:49;5.78;;;3.05;;
69246;SDS011;56358;56.328;43.992;2023-07-31T08:41:49;5.50;;;3.40;;
69246;SDS011;56358;56.328;43.992;2023-07-31T08:43:50;7.13;;;3.67;;
69246;SDS011;56358;56.328;43.992;2023-07-31T08:45:52;5.45;;;3.63;;
69246;SDS011;56358;56.328;43.992;2023-07-31T08:47:53;5.63;;;3.63;;
69246;SDS011;56358;56.328;43.992;2023-07-31T08:49:55;6.55;;;3.60;;
69246;SDS011;56358;56.328;43.992;2023-07-31T08:51:57;6.53;;;3.60;;
69246;SDS011;56358;56.328;43.992;2023-07-31T08:53:58;5.68;;;3.63;;
69246;SDS011;56358;56.328;43.992;2023-07-31T08:55:59;7.03;;;3.60;;
69246;SDS011;56358;56.328;43.992;2023-07-31T08:58:00;7.38;;;3.17;;
69246;SDS011;56358;56.328;43.992;2023-07-31T09:00:04;5.60;;;3.50;;
69246;SDS011;56358;56.328;43.992;2023-07-31T09:02:10;8.70;;;4.00;;
69246;SDS011;56358;56.328;43.992;2023-07-31T09:04:13;5.88;;;3.30;;
69246;SDS011;56358;56.328;43.992;2023-07-31T09:06:15;6.82;;;3.00;;
69246;SDS011;56358;56.328;43.992;2023-07-31T09:08:20;5.32;;;3.42;;
69246;SDS011;56358;56.328;43.992;2023-07-31T09:10:21;8.63;;;4.57;;
69246;SDS011;56358;56.328;43.992;2023-07-31T09:12:22;5.47;;;3.17;;
69246;SDS011;56358;56.328;43.992;2023-07-31T09:14:24;4.60;;;2.88;;
69246;SDS011;56358;56.328;43.992;2023-07-31T09:16:29;6.43;;;3.00;;
69246;SDS011;56358;56.328;43.992;2023-07-31T09:18:33;5.53;;;3.13;;
69246;SDS011;56358;56.328;43.992;2023-07-31T09:21:00;9.98;;;5.70;;
69246;SDS011;56358;56.328;43.992;2023-07-31T09:23:09;6.95;;;3.55;;
69246;SDS011;56358;56.328;43.992;2023-07-31T09:25:20;8.60;;;4.28;;
69246;SDS011;56358;56.328;43.992;2023-07-31T09:27:22;7.35;;;3.38;;
69246;SDS011;56358;56.328;43.992;2023-07-31T09:29:23;6.22;;;3.22;;
69246;SDS011;56358;56.328;43.992;2023-07-31T09:31:40;4.72;;;2.83;;
69246;SDS011;56358;56.328;43.992;2023-07-31T09:33:54;7.07;;;3.85;;
69246;SDS011;56358;56.328;43.992;2023-07-31T09:35:56;5.78;;;3.30;;
69246;SDS011;56358;56.328;43.992;2023-07-31T09:38:10;4.97;;;2.80;;
69246;SDS011;56358;56.328;43.992;2023-07-31T09:40:14;7.55;;;3.53;;
69246;SDS011;56358;56.328;43.992;2023-07-31T09:42:26;12.93;;;5.80;;
69246;SDS011;56358;56.328;43.992;2023-07-31T09:44:41;6.47;;;3.25;;
69246;SDS011;56358;56.328;43.992;2023-07-31T09:46:42;6.25;;;3.45;;
69246;SDS011;56358;56.328;43.992;2023-07-31T09:48:43;5.40;;;2.85;;
69246;SDS011;56358;56.328;43.992;2023-07-31T09:50:47;5.88;;;3.38;;
69246;SDS011;56358;56.328;43.992;2023-07-31T09:52:49;6.68;;;2.63;;
69246;SDS011;56358;56.328;43.992;2023-07-31T09:54:51;4.90;;;2.75;;
69246;SDS011;56358;56.328;43.992;2023-07-31T09:56:51;5.28;;;2.90;;
69246;SDS011;56358;56.328;43.992;2023-07-31T09:58:54;9.15;;;4.10;;
69246;SDS011;56358;56.328;43.992;2023-07-31T10:00:57;4.50;;;2.50;;
69246;SDS011;56358;56.328;43.992;2023-07-31T10:05:01;5.13;;;2.95;;
69246;SDS011;56358;56.328;43.992;2023-07-31T10:07:05;5.88;;;3.10;;
69246;SDS011;56358;56.328;43.992;2023-07-31T10:09:07;7.35;;;2.97;;
69246;SDS011;56358;56.328;43.992;2023-07-31T10:11:09;6.15;;;2.78;;
69246;SDS011;56358;56.328;43.992;2023-07-31T10:13:11;10.35;;;2.67;;
69246;SDS011;56358;56.328;43.992;2023-07-31T10:15:12;7.13;;;3.13;;
69246;SDS011;56358;56.328;43.992;2023-07-31T10:17:15;5.70;;;3.15;;
69246;SDS011;56358;56.328;43.992;2023-07-31T10:19:18;7.80;;;2.97;;
69246;SDS011;56358;56.328;43.992;2023-07-31T10:21:20;5.55;;;2.47;;
69246;SDS011;56358;56.328;43.992;2023-07-31T10:23:22;5.85;;;2.80;;
69246;SDS011;56358;56.328;43.992;2023-07-31T10:25:27;4.55;;;2.75;;
69246;SDS011;56358;56.328;43.992;2023-07-31T10:27:29;3.88;;;2.40;;
69246;SDS011;56358;56.328;43.992;2023-07-31T10:29:30;4.70;;;2.85;;
69246;SDS011;56358;56.328;43.992;2023-07-31T10:31:31;5.80;;;2.30;;
69246;SDS011;56358;56.328;43.992;2023-07-31T10:33:34;4.80;;;3.00;;
69246;SDS011;56358;56.328;43.992;2023-07-31T10:35:35;4.25;;;2.58;;
69246;SDS011;56358;56.328;43.992;2023-07-31T10:37:37;5.57;;;2.60;;
69246;SDS011;56358;56.328;43.992;2023-07-31T10:39:45;5.05;;;2.30;;
69246;SDS011;56358;56.328;43.992;2023-07-31T10:41:58;4.15;;;2.72;;
69246;SDS011;56358;56.328;43.992;2023-07-31T10:44:01;5.18;;;2.45;;
69246;SDS011;56358;56.328;43.992;2023-07-31T10:46:06;3.20;;;2.50;;
69246;SDS011;56358;56.328;43.992;2023-07-31T10:48:13;5.85;;;3.38;;
69246;SDS011;56358;56.328;43.992;2023-07-31T10:52:21;4.15;;;2.33;;
69246;SDS011;56358;56.328;43.992;2023-07-31T10:54:23;3.92;;;2.58;;
69246;SDS011;56358;56.328;43.992;2023-07-31T10:56:24;4.88;;;2.05;;
69246;SDS011;56358;56.328;43.992;2023-07-31T10:58:25;5.15;;;2.17;;
69246;SDS011;56358;56.328;43.992;2023-07-31T11:00:27;4.70;;;2.30;;
69246;SDS011;56358;56.328;43.992;2023-07-31T11:02:29;5.22;;;2.42;;
69246;SDS011;56358;56.328;43.992;2023-07-31T11:04:33;5.47;;;2.55;;
69246;SDS011;56358;56.328;43.992;2023-07-31T11:06:34;4.93;;;2.78;;
69246;SDS011;56358;56.328;43.992;2023-07-31T11:08:46;5.15;;;2.30;;
69246;SDS011;56358;56.328;43.992;2023-07-31T11:10:48;4.68;;;2.25;;
69246;SDS011;56358;56.328;43.992;2023-07-31T11:12:51;4.47;;;2.35;;
69246;SDS011;56358;56.328;43.992;2023-07-31T11:14:56;3.78;;;2.15;;
69246;SDS011;56358;56.328;43.992;2023-07-31T11:16:57;4.88;;;2.60;;
69246;SDS011;56358;56.328;43.992;2023-07-31T11:18:57;3.90;;;1.92;;
69246;SDS011;56358;56.328;43.992;2023-07-31T11:20:58;4.57;;;2.05;;
69246;SDS011;56358;56.328;43.992;2023-07-31T11:23:03;4.75;;;2.05;;
69246;SDS011;56358;56.328;43.992;2023-07-31T11:25:06;3.85;;;2.00;;
69246;SDS011;56358;56.328;43.992;2023-07-31T11:27:09;5.95;;;2.13;;
69246;SDS011;56358;56.328;43.992;2023-07-31T11:29:12;3.28;;;2.10;;
69246;SDS011;56358;56.328;43.992;2023-07-31T11:31:13;4.88;;;2.83;;
69246;SDS011;56358;56.328;43.992;2023-07-31T11:33:14;10.20;;;6.47;;
69246;SDS011;56358;56.328;43.992;2023-07-31T11:35:15;3.20;;;2.40;;
69246;SDS011;56358;56.328;43.992;2023-07-31T11:37:15;4.20;;;2.50;;
69246;SDS011;56358;56.328;43.992;2023-07-31T11:39:17;3.75;;;2.13;;
69246;SDS011;56358;56.328;43.992;2023-07-31T11:41:18;7.40;;;2.72;;
69246;SDS011;56358;56.328;43.992;2023-07-31T11:43:20;7.18;;;4.45;;
69246;SDS011;56358;56.328;43.992;2023-07-31T11:45:24;5.70;;;2.50;;
69246;SDS011;56358;56.328;43.992;2023-07-31T11:47:26;5.47;;;2.35;;
69246;SDS011;56358;56.328;43.992;2023-07-31T11:49:27;5.53;;;2.30;;
69246;SDS011;56358;56.328;43.992;2023-07-31T11:51:28;5.72;;;2.50;;
69246;SDS011;56358;56.328;43.992;2023-07-31T11:53:38;3.60;;;2.00;;
69246;SDS011;56358;56.328;43.992;2023-07-31T11:55:43;3.58;;;1.70;;
69246;SDS011;56358;56.328;43.992;2023-07-31T11:57:44;2.53;;;1.45;;
69246;SDS011;56358;56.328;43.992;2023-07-31T11:59:46;3.38;;;1.70;;
69246;SDS011;56358;56.328;43.992;2023-07-31T12:01:47;6.32;;;1.90;;
69246;SDS011;56358;56.328;43.992;2023-07-31T12:03:53;3.58;;;1.70;;
69246;SDS011;56358;56.328;43.992;2023-07-31T12:05:54;3.92;;;1.88;;
69246;SDS011;56358;56.328;43.992;2023-07-31T12:07:56;9.77;;;4.78;;
69246;SDS011;56358;56.328;43.992;2023-07-31T12:09:56;11.35;;;2.33;;
69246;SDS011;56358;56.328;43.992;2023-07-31T12:11:57;3.50;;;2.00;;
69246;SDS011;56358;56.328;43.992;2023-07-31T12:13:58;4.18;;;1.88;;
69246;SDS011;56358;56.328;43.992;2023-07-31T12:16:00;4.35;;;2.25;;
69246;SDS011;56358;56.328;43.992;2023-07-31T12:18:04;3.78;;;1.95;;